Time;durP1;ratioP1;P1;durP2;ratioP2;P2;SDS_P1;SDS_P2;PMS_P1;PMS_P2;Temp;Humidity;BMP_temperature;BMP_pressure;BME280_temperature;BME280_humidity;BME280_pressure;Samples;Min_cycle;Max_cycle;Signal;HPM_P1;HPM_P2
2022/09/16 00:01:29;;;;;;;0.82;0.63;;;12.70;99.90;;;;;;5037006;28;20079;-71
2022/09/16 00:03:56;;;;;;;0.10;0.10;;;12.70;99.90;;;;;;5049416;28;20547;-71
2022/09/16 00:06:25;;;;;;;0.00;0.00;;;12.60;99.90;;;;;;5031251;28;20481;-71
2022/09/16 00:08:52;;;;;;;0.00;0.00;;;12.60;99.90;;;;;;5010824;28;20379;-71
2022/09/16 00:11:18;;;;;;;0.00;0.00;;;12.50;99.90;;;;;;5009465;28;20508;-71
2022/09/16 00:13:45;;;;;;;0.40;0.40;;;12.50;99.90;;;;;;5010683;28;20382;-71
2022/09/16 00:16:17;;;;;;;0.00;0.00;;;12.60;99.90;;;;;;5047177;28;20051;-71
2022/09/16 00:18:42;;;;;;;0.10;0.10;;;12.60;99.90;;;;;;5047767;28;20041;-71
2022/09/16 00:21:09;;;;;;;0.10;0.10;;;12.70;99.90;;;;;;5051915;28;20048;-70
2022/09/16 00:23:35;;;;;;;0.00;0.00;;;12.80;99.90;;;;;;5053390;28;20481;-69
2022/09/16 00:26:02;;;;;;;0.00;0.00;;;12.70;99.90;;;;;;5040299;28;20443;-69
2022/09/16 00:28:27;;;;;;;0.00;0.00;;;12.80;99.90;;;;;;5032733;28;20048;-70
2022/09/16 00:30:53;;;;;;;0.10;0.10;;;12.90;99.90;;;;;;5032202;28;20065;-69
2022/09/16 00:33:19;;;;;;;0.00;0.00;;;12.90;99.90;;;;;;5033437;28;20409;-70
2022/09/16 00:35:45;;;;;;;0.10;0.10;;;12.90;99.90;;;;;;5032157;28;20481;-70
2022/09/16 00:38:12;;;;;;;0.10;0.10;;;12.90;99.90;;;;;;5031680;28;20041;-71
2022/09/16 00:40:49;;;;;;;0.00;0.00;;;12.90;99.90;;;;;;5026185;28;20536;-71
2022/09/16 00:43:17;;;;;;;0.20;0.20;;;12.80;99.90;;;;;;5052084;28;20431;-71
2022/09/16 00:45:48;;;;;;;0.20;0.20;;;12.80;99.90;;;;;;5053289;28;20044;-71
2022/09/16 00:48:20;;;;;;;0.08;0.08;;;12.80;99.90;;;;;;5053316;28;20049;-71
2022/09/16 00:50:50;;;;;;;0.63;0.63;;;12.80;99.90;;;;;;5051421;28;20448;-71
2022/09/16 00:53:26;;;;;;;0.10;0.10;;;12.80;99.90;;;;;;5051034;28;20057;-72
2022/09/16 00:55:55;;;;;;;0.10;0.10;;;12.80;99.90;;;;;;5033160;28;20049;-71
2022/09/16 00:58:32;;;;;;;0.10;0.10;;;12.80;99.90;;;;;;5026473;28;20056;-71
2022/09/16 01:00:57;;;;;;;0.10;0.10;;;12.80;99.90;;;;;;5046478;28;20045;-71
2022/09/16 01:03:25;;;;;;;0.10;0.10;;;12.80;99.90;;;;;;5012650;28;20050;-71
2022/09/16 01:05:51;;;;;;;0.10;0.10;;;12.80;99.90;;;;;;5010832;28;20041;-71
2022/09/16 01:08:17;;;;;;;0.00;0.00;;;12.70;99.90;;;;;;5041877;28;20088;-71
2022/09/16 01:10:42;;;;;;;0.10;0.10;;;12.80;99.90;;;;;;5051346;28;20076;-71
2022/09/16 01:13:13;;;;;;;0.05;0.05;;;12.80;99.90;;;;;;5051616;28;20407;-71
2022/09/16 01:15:47;;;;;;;0.00;0.00;;;12.70;99.90;;;;;;5053420;28;20049;-71
2022/09/16 01:18:36;;;;;;;0.15;0.15;;;12.70;99.90;;;;;;5052836;28;20413;-71
2022/09/16 01:21:12;;;;;;;0.10;0.10;;;12.70;99.90;;;;;;5049263;28;20404;-71
2022/09/16 01:24:09;;;;;;;0.00;0.00;;;12.70;99.90;;;;;;5053134;28;20472;-71
2022/09/16 01:27:16;;;;;;;0.00;0.00;;;12.70;99.90;;;;;;5051264;28;20757;-71
2022/09/16 01:29:45;;;;;;;0.00;0.00;;;12.60;99.90;;;;;;5041358;28;20509;-71
2022/09/16 01:32:16;;;;;;;0.00;0.00;;;12.60;99.90;;;;;;5030780;28;20088;-71
2022/09/16 01:34:56;;;;;;;0.10;0.10;;;12.60;99.90;;;;;;5032373;28;20134;-71
2022/09/16 01:37:39;;;;;;;0.00;0.00;;;12.50;99.90;;;;;;5046293;28;20056;-71
2022/09/16 01:40:17;;;;;;;0.00;0.00;;;12.50;99.90;;;;;;5046480;28;20067;-71
2022/09/16 01:42:55;;;;;;;0.00;0.00;;;12.50;99.90;;;;;;5028163;28;20902;-71
2022/09/16 01:45:32;;;;;;;0.00;0.00;;;12.60;99.90;;;;;;5028549;28;20057;-71
2022/09/16 01:48:27;;;;;;;1.27;0.98;;;12.60;99.90;;;;;;5040132;28;20131;-71
2022/09/16 01:51:01;;;;;;;0.08;0.08;;;12.60;99.90;;;;;;5051336;28;20055;-69
2022/09/16 01:53:33;;;;;;;0.00;0.00;;;12.70;99.90;;;;;;5052484;28;20132;-69
2022/09/16 01:56:11;;;;;;;0.10;0.10;;;12.70;99.90;;;;;;5051562;28;20515;-70
2022/09/16 01:58:44;;;;;;;0.10;0.10;;;12.60;99.90;;;;;;5034576;28;20100;-71
2022/09/16 02:01:25;;;;;;;0.80;0.80;;;12.60;99.90;;;;;;5050929;28;20057;-70
2022/09/16 02:03:59;;;;;;;0.20;0.20;;;12.50;99.90;;;;;;5050741;28;20051;-70
2022/09/16 02:06:28;;;;;;;0.45;0.45;;;12.40;99.90;;;;;;5042689;28;20057;-70
2022/09/16 02:09:05;;;;;;;0.10;0.10;;;12.40;99.90;;;;;;5051660;28;20045;-70
2022/09/16 02:11:32;;;;;;;0.10;0.10;;;12.40;99.90;;;;;;5052380;28;20048;-70
2022/09/16 02:14:07;;;;;;;0.32;0.32;;;12.40;99.90;;;;;;5048308;28;20056;-70
2022/09/16 02:16:47;;;;;;;1.08;0.98;;;12.40;99.90;;;;;;5050113;28;20049;-70
2022/09/16 02:19:25;;;;;;;0.10;0.10;;;12.40;99.90;;;;;;5051775;28;20044;-70
2022/09/16 02:21:54;;;;;;;0.10;0.10;;;12.40;99.90;;;;;;5030962;28;20437;-70
2022/09/16 02:24:21;;;;;;;0.10;0.10;;;12.40;99.90;;;;;;5030801;28;20049;-70
2022/09/16 02:27:00;;;;;;;0.00;0.00;;;12.30;99.90;;;;;;5028738;28;20044;-70
2022/09/16 02:29:31;;;;;;;0.00;0.00;;;12.20;99.90;;;;;;5031739;28;20056;-70
2022/09/16 02:32:01;;;;;;;0.10;0.10;;;12.20;99.90;;;;;;5029955;28;20128;-70
2022/09/16 02:34:37;;;;;;;0.00;0.00;;;12.20;99.90;;;;;;5049660;28;20045;-69
2022/09/16 02:37:29;;;;;;;0.10;0.10;;;12.20;99.90;;;;;;5050925;28;20037;-68
2022/09/16 02:40:01;;;;;;;0.10;0.10;;;12.40;99.90;;;;;;5026652;28;20045;-68
2022/09/16 02:42:27;;;;;;;0.10;0.10;;;12.40;99.90;;;;;;5031055;28;20511;-69
2022/09/16 02:44:54;;;;;;;0.08;0.08;;;12.40;99.90;;;;;;5032517;28;20079;-69
2022/09/16 02:47:33;;;;;;;0.00;0.00;;;12.40;99.90;;;;;;5046707;28;20037;-70
2022/09/16 02:50:02;;;;;;;0.00;0.00;;;12.40;99.90;;;;;;5049787;28;20461;-71
2022/09/16 02:52:33;;;;;;;0.00;0.00;;;12.40;99.90;;;;;;5050693;28;20042;-71
2022/09/16 02:55:21;;;;;;;0.20;0.20;;;12.30;99.90;;;;;;5050215;28;20887;-71
2022/09/16 02:57:48;;;;;;;0.10;0.10;;;12.20;99.90;;;;;;5039760;28;20130;-71
2022/09/16 03:00:14;;;;;;;0.90;0.65;;;12.20;99.90;;;;;;5050197;28;20075;-71
2022/09/16 03:02:40;;;;;;;0.08;0.08;;;12.10;99.90;;;;;;5051567;28;20448;-71
2022/09/16 03:05:07;;;;;;;0.10;0.10;;;12.00;99.90;;;;;;5047801;28;20671;-71
2022/09/16 03:07:34;;;;;;;0.55;0.55;;;11.90;99.90;;;;;;5051566;28;20057;-71
2022/09/16 03:10:00;;;;;;;0.00;0.00;;;11.90;99.90;;;;;;5048104;28;20095;-71
2022/09/16 03:12:48;;;;;;;0.10;0.10;;;11.80;99.90;;;;;;5049154;28;20040;-71
2022/09/16 03:15:47;;;;;;;0.10;0.10;;;11.80;99.90;;;;;;5050607;28;20060;-71
2022/09/16 03:18:31;;;;;;;0.10;0.10;;;11.90;99.90;;;;;;5028769;28;20048;-71
2022/09/16 03:21:03;;;;;;;0.10;0.10;;;11.90;99.90;;;;;;5030056;28;20056;-71
2022/09/16 03:23:31;;;;;;;0.10;0.10;;;12.00;99.90;;;;;;5029033;28;20124;-71
2022/09/16 03:26:14;;;;;;;0.10;0.10;;;12.00;99.90;;;;;;5030142;28;20132;-71
2022/09/16 03:28:46;;;;;;;0.10;0.10;;;12.10;99.90;;;;;;5029947;28;20370;-71
2022/09/16 03:31:41;;;;;;;0.80;0.70;;;12.10;99.90;;;;;;5046507;28;20045;-71
2022/09/16 03:34:21;;;;;;;0.00;0.00;;;12.10;99.90;;;;;;5001837;28;20409;-71
2022/09/16 03:36:53;;;;;;;0.00;0.00;;;12.00;99.90;;;;;;5010274;28;20072;-71
2022/09/16 03:39:21;;;;;;;0.00;0.00;;;12.10;99.90;;;;;;5014817;28;20489;-71
2022/09/16 03:41:47;;;;;;;0.00;0.00;;;12.10;99.90;;;;;;5029990;28;20108;-71
2022/09/16 03:44:13;;;;;;;0.32;0.32;;;12.00;99.90;;;;;;5030343;28;20049;-71
2022/09/16 03:46:38;;;;;;;0.00;0.00;;;12.00;99.90;;;;;;5029555;28;20056;-71
2022/09/16 03:49:04;;;;;;;0.10;0.10;;;12.00;99.90;;;;;;5035070;28;20439;-71
2022/09/16 03:51:30;;;;;;;0.10;0.10;;;12.00;99.90;;;;;;5050526;28;20095;-71
2022/09/16 03:53:55;;;;;;;0.10;0.10;;;11.90;99.90;;;;;;5041167;28;20422;-71
2022/09/16 03:56:24;;;;;;;0.10;0.10;;;11.90;99.90;;;;;;5040405;28;20041;-71
2022/09/16 03:58:50;;;;;;;0.13;0.13;;;11.90;99.90;;;;;;5050309;28;20052;-71
2022/09/16 04:01:16;;;;;;;0.10;0.10;;;12.00;99.90;;;;;;5039102;28;20045;-71
2022/09/16 04:03:42;;;;;;;0.00;0.00;;;11.90;99.90;;;;;;5048169;28;20041;-71
2022/09/16 04:06:08;;;;;;;2.65;0.47;;;11.90;99.90;;;;;;5040835;28;20041;-71
2022/09/16 04:08:34;;;;;;;0.10;0.10;;;12.00;99.90;;;;;;5029874;28;20546;-71
2022/09/16 04:11:03;;;;;;;0.10;0.10;;;11.90;99.90;;;;;;5050036;28;20033;-71
2022/09/16 04:13:32;;;;;;;0.68;0.68;;;11.90;99.90;;;;;;5050657;28;20049;-71
2022/09/16 04:15:58;;;;;;;0.10;0.10;;;11.80;99.90;;;;;;5047053;28;20037;-70
2022/09/16 04:18:23;;;;;;;0.00;0.00;;;11.70;99.90;;;;;;5049777;28;20053;-70
2022/09/16 04:20:49;;;;;;;1.98;1.05;;;11.60;99.90;;;;;;5050354;28;20052;-70
2022/09/16 04:23:15;;;;;;;1.02;0.95;;;11.50;99.90;;;;;;5046191;28;20393;-70
2022/09/16 04:25:40;;;;;;;0.10;0.10;;;11.50;99.90;;;;;;5050251;28;20055;-70
2022/09/16 04:28:06;;;;;;;0.00;0.00;;;11.40;99.90;;;;;;5047657;28;20029;-70
2022/09/16 04:30:32;;;;;;;0.10;0.10;;;11.40;99.90;;;;;;5049548;28;20131;-71
2022/09/16 04:32:58;;;;;;;0.20;0.20;;;11.30;99.90;;;;;;5028386;28;20160;-70
2022/09/16 04:35:24;;;;;;;0.08;0.08;;;11.30;99.90;;;;;;5049802;28;20053;-71
2022/09/16 04:37:51;;;;;;;0.00;0.00;;;11.30;99.90;;;;;;5049732;28;20510;-71
2022/09/16 04:40:17;;;;;;;0.00;0.00;;;11.30;99.90;;;;;;5042132;28;20041;-71
2022/09/16 04:42:50;;;;;;;0.05;0.05;;;11.30;99.90;;;;;;5028567;28;20495;-71
2022/09/16 04:45:15;;;;;;;0.00;0.00;;;11.20;99.90;;;;;;5029298;28;20052;-71
2022/09/16 04:47:41;;;;;;;0.10;0.10;;;11.10;99.90;;;;;;5030585;28;20389;-71
2022/09/16 04:50:08;;;;;;;0.10;0.10;;;11.10;99.90;;;;;;5043407;28;20052;-71
2022/09/16 04:52:33;;;;;;;0.17;0.17;;;11.10;99.90;;;;;;5049602;28;20381;-71
2022/09/16 04:54:59;;;;;;;0.08;0.08;;;11.10;99.90;;;;;;5043880;28;20107;-70
2022/09/16 04:57:24;;;;;;;0.10;0.10;;;11.20;99.90;;;;;;5035656;28;20492;-71
2022/09/16 04:59:50;;;;;;;0.10;0.10;;;11.20;99.90;;;;;;5050021;28;20057;-71
2022/09/16 05:02:15;;;;;;;0.00;0.00;;;11.30;99.90;;;;;;5049541;28;20416;-71
2022/09/16 05:04:41;;;;;;;0.20;0.20;;;11.40;99.90;;;;;;5047086;28;20162;-71
2022/09/16 05:07:07;;;;;;;0.10;0.10;;;11.50;99.90;;;;;;5022779;28;20045;-71
2022/09/16 05:09:34;;;;;;;0.10;0.10;;;11.60;99.90;;;;;;5033602;28;20057;-71
2022/09/16 05:11:59;;;;;;;0.10;0.10;;;11.80;99.90;;;;;;5032072;28;20038;-71
2022/09/16 05:14:26;;;;;;;0.10;0.10;;;11.90;99.90;;;;;;5034137;28;20045;-70
2022/09/16 05:16:52;;;;;;;0.10;0.10;;;12.00;99.90;;;;;;5053131;28;20056;-71
2022/09/16 05:19:18;;;;;;;0.05;0.05;;;12.00;99.90;;;;;;5052468;28;20152;-71
2022/09/16 05:21:43;;;;;;;17.15;1.58;;;12.00;99.90;;;;;;5049333;28;20536;-71
2022/09/16 05:24:11;;;;;;;0.10;0.10;;;12.00;99.90;;;;;;5052747;28;20036;-71
2022/09/16 05:26:40;;;;;;;0.08;0.08;;;12.00;99.90;;;;;;5049717;28;20068;-71
2022/09/16 05:29:10;;;;;;;0.10;0.10;;;12.00;99.90;;;;;;5052594;28;20041;-70
2022/09/16 05:31:38;;;;;;;0.10;0.10;;;12.00;99.90;;;;;;5050904;28;20037;-71
2022/09/16 05:34:12;;;;;;;0.10;0.10;;;11.90;99.90;;;;;;5030332;28;20060;-71
2022/09/16 05:36:38;;;;;;;0.38;0.38;;;11.90;99.90;;;;;;5032922;28;20397;-71
2022/09/16 05:39:03;;;;;;;0.10;0.10;;;11.80;99.90;;;;;;5032651;28;20038;-71
2022/09/16 05:41:29;;;;;;;0.10;0.10;;;11.80;99.90;;;;;;5024387;28;20512;-71
2022/09/16 05:43:58;;;;;;;0.20;0.20;;;11.80;99.90;;;;;;5052944;28;20049;-71
2022/09/16 05:46:23;;;;;;;0.10;0.10;;;11.80;99.90;;;;;;5052468;28;20080;-71
2022/09/16 05:48:49;;;;;;;0.13;0.13;;;11.80;99.90;;;;;;5046575;28;20450;-71
2022/09/16 05:51:20;;;;;;;0.10;0.10;;;11.90;99.90;;;;;;5010926;28;20049;-71
2022/09/16 05:53:47;;;;;;;0.28;0.28;;;11.90;99.90;;;;;;5012465;28;20042;-71
2022/09/16 05:56:18;;;;;;;0.00;0.00;;;11.90;99.90;;;;;;5012395;28;20120;-71
2022/09/16 05:58:45;;;;;;;0.10;0.10;;;11.90;99.90;;;;;;5016937;28;20157;-71
2022/09/16 06:01:16;;;;;;;0.10;0.10;;;12.00;99.90;;;;;;5049359;28;20056;-71
2022/09/16 06:03:43;;;;;;;0.00;0.00;;;12.10;99.90;;;;;;5043274;28;20142;-71
2022/09/16 06:06:13;;;;;;;0.10;0.10;;;12.10;99.90;;;;;;5051720;28;20049;-71
2022/09/16 06:08:39;;;;;;;0.00;0.00;;;12.30;99.90;;;;;;5051419;28;20131;-71
2022/09/16 06:11:07;;;;;;;0.10;0.10;;;12.30;99.90;;;;;;5049595;28;20082;-71
2022/09/16 06:13:33;;;;;;;0.00;0.00;;;12.40;99.90;;;;;;5051860;28;20091;-71
2022/09/16 06:15:59;;;;;;;0.00;0.00;;;12.40;99.90;;;;;;5051425;28;20045;-71
2022/09/16 06:18:27;;;;;;;0.10;0.10;;;12.40;99.90;;;;;;5048137;28;20447;-71
2022/09/16 06:20:53;;;;;;;0.10;0.10;;;12.40;99.90;;;;;;5050645;28;20061;-71
2022/09/16 06:23:19;;;;;;;0.10;0.10;;;12.40;99.90;;;;;;5050833;28;20045;-70
2022/09/16 06:25:44;;;;;;;0.40;0.40;;;12.40;99.90;;;;;;5049663;28;20056;-71
2022/09/16 06:28:10;;;;;;;0.00;0.00;;;12.40;99.90;;;;;;5029939;28;20053;-71
2022/09/16 06:30:37;;;;;;;0.10;0.10;;;12.40;99.90;;;;;;5031172;28;20049;-71
2022/09/16 06:33:03;;;;;;;0.00;0.00;;;12.50;99.90;;;;;;5028744;28;20081;-71
2022/09/16 06:35:29;;;;;;;0.00;0.00;;;12.50;99.90;;;;;;5032082;28;20044;-71
2022/09/16 06:37:55;;;;;;;0.05;0.05;;;12.60;99.90;;;;;;5030367;28;20045;-71
2022/09/16 06:40:20;;;;;;;0.10;0.10;;;12.70;99.90;;;;;;5027896;28;20042;-71
2022/09/16 06:42:46;;;;;;;0.30;0.30;;;12.70;99.90;;;;;;5031617;28;20049;-71
2022/09/16 06:45:11;;;;;;;0.10;0.10;;;12.80;99.90;;;;;;5030489;28;20128;-71
2022/09/16 06:47:37;;;;;;;0.55;0.55;;;12.80;99.90;;;;;;5033215;28;20049;-71
2022/09/16 06:50:04;;;;;;;0.10;0.10;;;12.90;99.90;;;;;;5030554;28;20379;-71
2022/09/16 06:52:30;;;;;;;0.10;0.10;;;12.90;99.90;;;;;;5033481;28;20456;-71
2022/09/16 06:54:56;;;;;;;0.00;0.00;;;12.80;99.90;;;;;;5031764;28;20054;-71
2022/09/16 06:57:22;;;;;;;0.10;0.10;;;12.80;99.90;;;;;;5035513;28;20139;-71
2022/09/16 06:59:51;;;;;;;0.00;0.00;;;12.80;99.90;;;;;;5047745;28;20151;-71
2022/09/16 07:02:18;;;;;;;0.20;0.20;;;12.80;99.90;;;;;;5050800;28;20365;-71
2022/09/16 07:04:44;;;;;;;0.10;0.10;;;12.80;99.90;;;;;;5050572;28;20053;-72
2022/09/16 07:07:11;;;;;;;0.10;0.10;;;12.80;99.90;;;;;;5043732;28;20051;-71
2022/09/16 07:09:36;;;;;;;0.10;0.10;;;12.80;99.90;;;;;;5051244;28;20037;-71
2022/09/16 07:12:03;;;;;;;0.00;0.00;;;12.90;99.90;;;;;;5050027;28;20439;-72
2022/09/16 07:14:31;;;;;;;0.00;0.00;;;13.00;99.90;;;;;;5048721;28;20036;-71
2022/09/16 07:16:57;;;;;;;0.10;0.10;;;13.10;99.90;;;;;;5049970;28;20439;-71
2022/09/16 07:19:24;;;;;;;0.10;0.10;;;13.20;99.90;;;;;;5049876;28;20110;-72
2022/09/16 07:21:49;;;;;;;0.08;0.08;;;13.40;99.90;;;;;;5051038;28;20048;-71
2022/09/16 07:24:15;;;;;;;0.10;0.10;;;13.50;99.90;;;;;;5042561;28;20042;-71
2022/09/16 07:26:41;;;;;;;0.10;0.10;;;13.70;99.90;;;;;;5030268;28;20555;-71
2022/09/16 07:29:11;;;;;;;4.68;1.75;;;13.70;99.90;;;;;;5030255;28;20045;-72
2022/09/16 07:31:37;;;;;;;1.55;0.68;;;13.60;99.90;;;;;;5037787;28;20041;-72
2022/09/16 07:34:04;;;;;;;0.00;0.00;;;13.70;99.90;;;;;;5029946;28;20044;-72
2022/09/16 07:36:36;;;;;;;0.10;0.10;;;13.60;99.90;;;;;;5028676;28;20071;-71
2022/09/16 07:39:02;;;;;;;0.10;0.10;;;13.60;99.90;;;;;;5050037;28;20098;-71
2022/09/16 07:41:31;;;;;;;0.03;0.03;;;13.50;99.90;;;;;;5032484;28;20042;-72
2022/09/16 07:43:58;;;;;;;0.08;0.08;;;13.50;99.90;;;;;;5029778;28;20054;-71
2022/09/16 07:46:26;;;;;;;0.10;0.10;;;13.50;99.90;;;;;;5036252;28;20445;-72
2022/09/16 07:48:53;;;;;;;0.75;0.75;;;13.60;99.90;;;;;;5049248;28;20448;-71
2022/09/16 07:51:21;;;;;;;0.10;0.10;;;13.60;99.90;;;;;;5044463;28;20068;-72
2022/09/16 07:53:51;;;;;;;0.10;0.10;;;13.60;99.90;;;;;;5049827;28;20041;-71
2022/09/16 07:56:20;;;;;;;0.57;0.57;;;13.60;99.90;;;;;;5050299;28;20044;-71
2022/09/16 07:58:46;;;;;;;0.10;0.10;;;13.60;99.90;;;;;;5047994;28;20516;-71
2022/09/16 08:01:16;;;;;;;0.40;0.40;;;13.60;99.90;;;;;;5049596;28;20044;-71
2022/09/16 08:03:43;;;;;;;0.20;0.20;;;13.70;99.90;;;;;;5040484;28;20052;-71
2022/09/16 08:06:19;;;;;;;0.10;0.10;;;13.70;99.90;;;;;;5050143;28;20056;-71
2022/09/16 08:08:45;;;;;;;0.00;0.00;;;13.70;99.90;;;;;;5046852;28;20119;-71
2022/09/16 08:11:13;;;;;;;0.57;0.57;;;13.80;99.90;;;;;;5029551;28;20124;-72
2022/09/16 08:13:40;;;;;;;1.13;1.13;;;13.80;99.90;;;;;;5035049;28;20122;-71
2022/09/16 08:16:17;;;;;;;0.10;0.10;;;13.90;99.90;;;;;;5049264;28;20044;-72
2022/09/16 08:18:43;;;;;;;0.10;0.10;;;13.90;99.90;;;;;;5050789;28;20040;-71
2022/09/16 08:21:12;;;;;;;0.38;0.38;;;13.90;99.90;;;;;;5049810;28;20055;-71
2022/09/16 08:23:38;;;;;;;0.10;0.10;;;14.00;99.90;;;;;;5047604;28;20045;-71
2022/09/16 08:26:07;;;;;;;0.00;0.00;;;14.10;99.90;;;;;;5048510;28;20049;-72
2022/09/16 08:28:33;;;;;;;0.10;0.10;;;14.20;99.90;;;;;;5047224;28;20114;-71
2022/09/16 08:31:00;;;;;;;0.00;0.00;;;14.20;99.90;;;;;;5029438;28;20493;-72
2022/09/16 08:33:26;;;;;;;0.00;0.00;;;14.30;99.90;;;;;;5038664;28;20040;-72
2022/09/16 08:36:06;;;;;;;0.10;0.10;;;14.40;99.90;;;;;;5047544;28;20098;-71
2022/09/16 08:38:32;;;;;;;0.08;0.08;;;14.50;99.90;;;;;;5045491;28;20455;-72
2022/09/16 08:41:13;;;;;;;0.43;0.43;;;14.60;99.90;;;;;;5035682;28;20073;-72
2022/09/16 08:44:01;;;;;;;2.97;2.75;;;14.70;99.90;;;;;;5031890;28;20056;-72
2022/09/16 08:46:38;;;;;;;3.50;1.65;;;15.40;99.90;;;;;;5033769;28;20448;-73
2022/09/16 08:49:28;;;;;;;0.00;0.00;;;16.30;99.90;;;;;;5032391;28;20054;-72
2022/09/16 08:51:55;;;;;;;0.10;0.10;;;17.10;99.90;;;;;;5030992;28;20089;-72
2022/09/16 08:54:36;;;;;;;0.10;0.10;;;17.80;99.90;;;;;;5032093;28;20375;-72
2022/09/16 08:57:04;;;;;;;0.10;0.10;;;18.40;99.90;;;;;;5032145;28;20500;-72
2022/09/16 08:59:36;;;;;;;0.10;0.10;;;18.70;99.90;;;;;;5052978;28;20056;-72
2022/09/16 09:02:23;;;;;;;0.00;0.00;;;19.10;99.90;;;;;;5053388;28;20530;-71
2022/09/16 09:04:49;;;;;;;2.30;0.15;;;19.50;99.40;;;;;;5053314;28;20052;-72
2022/09/16 09:07:29;;;;;;;0.10;0.10;;;19.80;99.20;;;;;;5049417;28;20056;-72
2022/09/16 09:10:17;;;;;;;1.88;1.02;;;19.50;99.90;;;;;;5052294;28;20202;-72
2022/09/16 09:13:01;;;;;;;0.00;0.00;;;19.50;99.90;;;;;;5052295;28;20047;-72
2022/09/16 09:15:30;;;;;;;0.00;0.00;;;19.40;99.90;;;;;;5053458;28;20048;-72
2022/09/16 09:18:23;;;;;;;0.25;0.25;;;19.80;99.90;;;;;;5051409;28;20056;-73
2022/09/16 09:21:12;;;;;;;3.00;1.75;;;19.10;99.90;;;;;;5051697;28;20045;-73
2022/09/16 09:24:03;;;;;;;0.15;0.15;;;18.10;99.90;;;;;;5051831;28;20045;-73
2022/09/16 09:26:49;;;;;;;0.05;0.05;;;17.40;99.90;;;;;;5034769;28;20420;-73
2022/09/16 09:29:32;;;;;;;1.52;0.30;;;16.70;99.90;;;;;;5031446;28;20522;-72
2022/09/16 09:32:16;;;;;;;0.08;0.08;;;16.70;99.90;;;;;;5032658;28;20088;-72
2022/09/16 09:35:00;;;;;;;0.10;0.10;;;17.30;99.90;;;;;;5032208;28;20076;-72
2022/09/16 09:37:46;;;;;;;0.10;0.10;;;18.00;99.90;;;;;;5051159;28;20136;-72
2022/09/16 09:40:31;;;;;;;0.00;0.00;;;18.70;99.90;;;;;;5043238;28;20080;-72
2022/09/16 09:43:12;;;;;;;0.10;0.10;;;19.40;99.90;;;;;;5023307;28;20037;-72
2022/09/16 09:45:43;;;;;;;0.00;0.00;;;19.80;99.90;;;;;;5052939;28;20126;-72
2022/09/16 09:48:12;;;;;;;0.03;0.03;;;20.10;98.90;;;;;;5051046;28;20496;-72
2022/09/16 09:50:42;;;;;;;0.00;0.00;;;20.50;99.00;;;;;;5050799;28;20111;-72
2022/09/16 09:53:24;;;;;;;0.00;0.00;;;20.40;99.10;;;;;;5049950;28;20051;-72
2022/09/16 09:55:58;;;;;;;0.22;0.22;;;20.50;99.10;;;;;;5053198;28;20123;-72
2022/09/16 09:58:36;;;;;;;0.00;0.00;;;20.50;98.70;;;;;;5035003;28;20461;-72
2022/09/16 10:01:02;;;;;;;0.00;0.00;;;20.70;98.20;;;;;;5032001;28;20444;-73
2022/09/16 10:03:30;;;;;;;0.10;0.10;;;20.80;99.20;;;;;;5032637;28;20076;-72
2022/09/16 10:05:56;;;;;;;0.30;0.30;;;20.60;99.20;;;;;;5044617;28;20052;-73
2022/09/16 10:08:49;;;;;;;0.00;0.00;;;19.90;98.90;;;;;;5049804;28;20049;-72
2022/09/16 10:11:32;;;;;;;0.00;0.00;;;19.50;99.80;;;;;;5047530;28;20051;-71
2022/09/16 10:14:01;;;;;;;0.73;0.68;;;19.40;99.20;;;;;;5052178;28;20044;-71
2022/09/16 10:16:38;;;;;;;0.30;0.30;;;19.30;99.80;;;;;;5046852;28;20057;-71
2022/09/16 10:19:17;;;;;;;0.00;0.00;;;19.40;99.00;;;;;;5038177;28;20053;-72
2022/09/16 10:22:08;;;;;;;0.00;0.00;;;19.20;99.40;;;;;;5050433;28;20057;-73
2022/09/16 10:24:36;;;;;;;1.00;1.00;;;19.20;99.80;;;;;;5036109;28;20415;-73
2022/09/16 10:27:29;;;;;;;0.10;0.10;;;19.30;99.90;;;;;;5049595;28;20064;-72
2022/09/16 10:30:14;;;;;;;0.00;0.00;;;19.10;99.90;;;;;;5050962;28;20084;-72
2022/09/16 10:33:05;;;;;;;0.00;0.00;;;19.30;99.90;;;;;;5039617;28;20439;-72
2022/09/16 10:35:34;;;;;;;0.10;0.10;;;19.20;99.90;;;;;;5023900;28;20060;-73
2022/09/16 10:38:20;;;;;;;14.60;0.45;;;19.20;99.90;;;;;;5047254;28;20041;-73
2022/09/16 10:40:52;;;;;;;0.00;0.00;;;19.30;99.90;;;;;;5046461;28;20045;-73
2022/09/16 10:43:18;;;;;;;0.00;0.00;;;19.60;99.90;;;;;;5050595;28;20099;-73
2022/09/16 10:45:49;;;;;;;0.70;0.68;;;19.10;99.90;;;;;;5051843;28;20607;-74
2022/09/16 10:48:18;;;;;;;1.52;0.90;;;19.10;99.90;;;;;;5047933;28;20136;-73
2022/09/16 10:51:02;;;;;;;0.17;0.17;;;19.20;99.90;;;;;;5048878;28;20559;-74
2022/09/16 10:53:50;;;;;;;0.00;0.00;;;19.20;99.90;;;;;;5051436;28;20041;-75
2022/09/16 10:56:19;;;;;;;0.00;0.00;;;19.20;99.90;;;;;;5029982;28;20045;-75
2022/09/16 10:58:44;;;;;;;0.00;0.00;;;19.40;99.90;;;;;;5051230;28;20053;-75
2022/09/16 11:01:41;;;;;;;0.20;0.20;;;19.70;99.90;;;;;;5049530;28;20562;-74
2022/09/16 11:04:25;;;;;;;0.00;0.00;;;19.50;99.40;;;;;;5044916;28;20057;-74
2022/09/16 11:07:13;;;;;;;0.00;0.00;;;19.40;99.90;;;;;;5031148;28;20042;-75
2022/09/16 11:10:13;;;;;;;0.20;0.20;;;19.20;99.90;;;;;;5027983;28;20041;-75
2022/09/16 11:12:57;;;;;;;0.75;0.57;;;18.70;99.40;;;;;;5030019;28;20068;-75
2022/09/16 11:16:00;;;;;;;0.00;0.00;;;18.40;99.90;;;;;;5029490;28;20119;-75
2022/09/16 11:18:42;;;;;;;0.05;0.05;;;18.20;99.90;;;;;;5027145;28;20053;-74
2022/09/16 11:21:16;;;;;;;0.75;0.60;;;17.90;99.90;;;;;;5030376;28;20111;-75
2022/09/16 11:24:20;;;;;;;0.00;0.00;;;18.50;99.90;;;;;;5030001;28;20049;-75
2022/09/16 11:27:04;;;;;;;1.60;0.53;;;19.00;99.90;;;;;;5030042;28;20131;-74
2022/09/16 11:29:42;;;;;;;0.20;0.20;;;19.40;99.70;;;;;;5035059;28;20744;-74
2022/09/16 11:32:16;;;;;;;0.98;0.85;;;19.40;99.90;;;;;;5042967;28;20100;-75
2022/09/16 11:35:16;;;;;;;0.00;0.00;;;19.50;99.90;;;;;;5047170;28;20572;-74
2022/09/16 11:37:54;;;;;;;0.20;0.20;;;19.50;99.90;;;;;;5051099;28;20049;-75
2022/09/16 11:40:44;;;;;;;1.65;0.73;;;19.10;99.90;;;;;;5041025;28;20057;-74
2022/09/16 11:43:28;;;;;;;0.10;0.10;;;18.80;99.40;;;;;;5044657;28;20068;-75
2022/09/16 11:46:25;;;;;;;0.10;0.10;;;19.10;99.60;;;;;;5050091;28;20037;-75
2022/09/16 11:49:23;;;;;;;0.28;0.15;;;19.40;99.50;;;;;;5050493;28;20040;-75
2022/09/16 11:52:24;;;;;;;0.20;0.20;;;19.50;99.90;;;;;;5033712;28;20049;-74
2022/09/16 11:55:13;;;;;;;0.00;0.00;;;19.10;99.90;;;;;;5050456;28;20052;-76
2022/09/16 11:57:42;;;;;;;0.00;0.00;;;19.00;99.90;;;;;;5048057;28;20528;-75
2022/09/16 12:00:18;;;;;;;0.08;0.08;;;19.20;99.90;;;;;;5048829;28;20499;-75
2022/09/16 12:03:28;;;;;;;0.38;0.28;;;19.60;99.30;;;;;;5050725;28;20048;-76
2022/09/16 12:06:06;;;;;;;0.10;0.10;;;19.90;99.40;;;;;;5046693;28;20057;-76
2022/09/16 12:08:43;;;;;;;9.85;0.70;;;19.90;99.10;;;;;;5047530;28;20045;-76
2022/09/16 12:11:32;;;;;;;0.20;0.20;;;19.60;99.40;;;;;;5049412;28;20515;-75
2022/09/16 12:14:09;;;;;;;0.95;0.90;;;19.70;99.40;;;;;;5048595;28;20041;-76
2022/09/16 12:16:42;;;;;;;0.08;0.08;;;19.60;99.70;;;;;;5053694;28;20064;-75
2022/09/16 12:19:19;;;;;;;0.40;0.40;;;19.50;99.90;;;;;;5041864;28;20056;-75
2022/09/16 12:21:52;;;;;;;1.27;0.80;;;19.50;99.60;;;;;;5048014;28;20405;-75
2022/09/16 12:24:25;;;;;;;0.30;0.30;;;19.20;99.90;;;;;;5031451;28;20053;-74
2022/09/16 12:26:58;;;;;;;0.10;0.10;;;18.90;99.90;;;;;;5032365;28;20068;-74
2022/09/16 12:29:39;;;;;;;0.05;0.05;;;18.60;99.90;;;;;;5053252;28;20867;-73
2022/09/16 12:32:11;;;;;;;0.47;0.47;;;18.40;99.90;;;;;;5046329;28;20495;-75
2022/09/16 12:34:45;;;;;;;25.58;1.38;;;18.20;99.90;;;;;;5029220;28;20080;-74
2022/09/16 12:37:35;;;;;;;3.72;1.35;;;18.00;99.90;;;;;;5053517;28;20136;-75
2022/09/16 12:40:03;;;;;;;0.20;0.20;;;18.10;99.90;;;;;;5031822;28;20120;-75
2022/09/16 12:42:59;;;;;;;0.00;0.00;;;18.00;99.90;;;;;;5032003;28;20057;-75
2022/09/16 12:45:41;;;;;;;0.00;0.00;;;18.20;99.90;;;;;;5028926;28;20056;-75
2022/09/16 12:48:28;;;;;;;0.35;0.35;;;18.10;99.90;;;;;;5053479;28;20059;-75
2022/09/16 12:51:24;;;;;;;2.78;0.75;;;18.30;99.90;;;;;;5053211;28;20048;-75
2022/09/16 12:54:03;;;;;;;0.00;0.00;;;18.30;99.90;;;;;;5050533;28;20047;-75
2022/09/16 12:56:57;;;;;;;0.35;0.35;;;18.50;99.90;;;;;;5052795;28;20138;-75
2022/09/16 12:59:50;;;;;;;0.00;0.00;;;18.60;99.90;;;;;;5052971;28;20053;-75
2022/09/16 13:02:22;;;;;;;1.17;0.70;;;18.70;99.90;;;;;;5050763;28;20103;-75
2022/09/16 13:04:51;;;;;;;0.33;0.33;;;18.50;99.90;;;;;;5053010;28;20127;-75
2022/09/16 13:07:26;;;;;;;9.32;0.35;;;18.60;99.90;;;;;;5050567;28;20091;-75
2022/09/16 13:10:07;;;;;;;0.10;0.10;;;18.30;99.90;;;;;;5049367;28;20037;-74
2022/09/16 13:12:34;;;;;;;2.03;0.38;;;18.00;99.90;;;;;;5051870;28;20040;-73
2022/09/16 13:15:03;;;;;;;1.13;0.98;;;18.00;99.90;;;;;;5053451;28;20366;-74
2022/09/16 13:17:35;;;;;;;0.75;0.70;;;18.00;99.90;;;;;;5033695;28;20045;-74